KIWA

Phoenix-Mesa Gateway Airport

Phoenix, Arizona, USA
METAR KIWA 201556Z VRB03KT 30SM SKC 33/17 A2995
Observed Flight Rules
Aug-20 @ 15:56 UTC (29 minutes ago) Visual Flight Rules
Wind Visibility Clouds
Variable at 3 knots 30 miles
  • Clear skies
Temperatures Readings
Current 33°C / 91°F
Dewpoint 17°C / 63°F
Humidity 38%
Altimeter 29.95" Hg
Pressure 1014 hPa
Elevation 412
METAR KIWA 201556Z VRB03KT 30SM SKC 33/17 A2995
Observed Flight Rules
Aug-20 @ 15:56 UTC
(29 minutes ago)
VFR
Wind Visibility
Variable at 3 knots 30 miles
Clouds
  • Clear skies
Temperature Dewpoint
33°C / 91°F 17°C / 63°F
Humidity Altimeter Pressure
38% 29.95" Hg 1014 hPa